No particular awareness of the weather is required.    There are no Weather-warnings


Meteo18 Weather Cam more information Meteo18 Weather Cam


Thunder radar more information blitzortung!


Rain radar more information rain snow radar


Visit our other weather sites:

Template documentation
and downloads

And another site



Nearby METAR Reports

   
LFOA - Avord
Updated: 24-06-2018 14:30
Clear  
Clear  
   Wind: NNE 24.1 km/h
Wind: NNE 24.1 km/h
Temperature: 23°C
Dew Point: 6°C
Humidity: 33%
Barometer: 1022 hPa
Clouds: Clear
Visibility: More than 10 km
Cloud details: Clear
LFOA 241230Z AUTO 02013KT 350V050 9999 NCD 23/06 Q1022 NOSIG
LFQG - Nevers
Updated: 24-06-2018 14:00
Clear  
Clear  
   Wind: North 18.5 km/h
Wind: North 18.5 km/h
Temperature: 23°C
Dew Point: 8°C
Humidity: 38%
Barometer: 1022 hPa
Visibility: More than 10 km
Cloud details: Clear
LFQG 241200Z AUTO 01010KT 340V050 CAVOK 23/08 Q1022
LFYR - Romorantin
Updated: 24-06-2018 14:30
Clear  
Clear  
   Wind: NE 11.1 km/h
Wind: NE 11.1 km/h
Temperature: 23°C
Dew Point: 10°C
Humidity: 44%
Barometer: 1022 hPa
Visibility: More than 10 km
Cloud details: Clear
LFYR 241230Z AUTO 04006KT 320V090 CAVOK 23/10 Q1022
LFQB - Troyes
Updated: 24-06-2018 14:30
  
  
   Wind: North 18.5 km/h
Wind: North 18.5 km/h
Temperature: 22°C
Dew Point: 7°C
Humidity: 38%
Barometer: 1022 hPa
Visibility: More than 10 km
LFQB 241230Z AUTO 36010KT 330V050 9999 ////// 22/07 Q1022
  

Script developed by  Saratoga-weather.org Adapted for the template by  Weerstation Leuven

You find our weather info also at:

European Weather Network

Weather Underground

Equipment we use:

Weather-station
Davis Vue

Weather-program
Meteobridge

Weather-server
Raspberry PI 2 B+

Provider
1 and 1

Davis Vue

Meteobridge

Raspberry PI 2 B+

1 and 1